Greenbelt, MD (20770)

2:00 AM EDT on March 27, 2015 (GMT -0400)
Boxwood Village | | Change Station
CLOSE
Current Station
Personal Weather Station
Location: Greenbelt, MD
Elevation: 249 ft
Nearby Weather Stations

Elev 249 ft 39.01 °N, 76.88 °W | Updated 43 seconds ago

Rain
Rain
46.7 °F
Feels Like 47 °F
N
0.0
Wind Variable Wind from WNW
Gusts 0.0 mph

Today
High -- | Low -- °F
--% Chance of Precip.
Yesterday
High -- | Low -- °F
Precip. -- in
7:00 AM 7:26 PM
Waxing Crescent, 49% visible
Pressure 29.77 in
Visibility 7.0 miles
Clouds Scattered Clouds 3000 ft
Mostly Cloudy 5500 ft
Overcast 7500 ft
Windchill 47 °F
Dew Point 44 °F
Humidity 92%
Rainfall 0.09 in
Snow Depth Not available.
UV 0 out of 12
Pollen 8.10 out of 12
Air Quality Not available.
Flu Activity Not available.
METAR KCGS 270545Z AUTO 34005KT 7SM SCT030 BKN055 OVC075 09/07 A2977 RMK AO1

More Conditions Fewer Conditions

Pressure 29.77 in
Visibility 7.0 miles
Clouds Scattered Clouds 3000 ft
Mostly Cloudy 5500 ft
Overcast 7500 ft
Windchill 47 °F
Dew Point 44 °F
Humidity 92%
Rainfall 0.09 in
Snow Depth Not available.
UV 0 out of 12
Pollen 8.10 out of 12
Air Quality Not available.
Flu Activity Not available.
METAR KCGS 270545Z AUTO 34005KT 7SM SCT030 BKN055 OVC075 09/07 A2977 RMK AO1

More Conditions Fewer Conditions

10-Day Weather Forecast

Almanac

Astronomy

Mar. 27, 2015 Rise Set
Actual Time
Civil Twilight
Nautical Twilight
Astronomical Twilight
Moon
Length of Visible Light
Length of Day
Tomorrow will be .
, % of the Moon is Illuminated

Today's Extremes

State Highs State Lows

Community

WunderPhotos

Upload Photos

1,808,700 photos uploaded!

WunderBlogs® & News

Nearby

Air Quality

  Air Quality AQ Index Pollutant
Not available.

Snow Depth

Station Depth Elevation

Earthquake Activity

City Distance Mag. Time & Date
Minimum magnitude displayed is 2.5.

Coastal Water Temperatures

Place Temperature

Stations

Nearby Weather Stations

Station Location Temp. Windchill Dew Point Humidity Wind Precip. Elev Updated Type